Time;durP1;ratioP1;P1;durP2;ratioP2;P2;SDS_P1;SDS_P2;PMS_P1;PMS_P2;Temp;Humidity;BMP_temperature;BMP_pressure;BME280_temperature;BME280_humidity;BME280_pressure;Samples;Min_cycle;Max_cycle;Signal;HPM_P1;HPM_P2
2022/10/10 00:00:47;;;;;;;5.78;2.05;;;;;;;10.84;70.06;101186.73;1755636;80;21453;-46
2022/10/10 00:03:15;;;;;;;4.40;1.47;;;;;;;10.81;70.22;101197.95;1758528;81;21028;-47
2022/10/10 00:05:42;;;;;;;6.97;1.90;;;;;;;10.76;70.32;101194.34;1753688;81;21110;-47
2022/10/10 00:08:10;;;;;;;4.47;1.65;;;;;;;10.77;70.30;101190.27;1758117;81;21091;-47
2022/10/10 00:10:37;;;;;;;6.15;1.55;;;;;;;10.79;70.18;101188.84;1754372;81;21205;-47
2022/10/10 00:13:04;;;;;;;5.53;1.92;;;;;;;10.80;70.24;101189.23;1757876;79;21017;-47
2022/10/10 00:15:32;;;;;;;7.55;2.10;;;;;;;10.79;70.26;101196.74;1759296;81;21059;-46
2022/10/10 00:17:59;;;;;;;4.92;1.67;;;;;;;10.73;70.35;101194.06;1747464;80;21045;-46
2022/10/10 00:20:27;;;;;;;7.03;1.70;;;;;;;10.70;70.34;101195.58;1756409;81;21498;-47
2022/10/10 00:22:54;;;;;;;6.35;1.87;;;;;;;10.74;70.31;101197.53;1753665;81;21958;-47
2022/10/10 00:25:22;;;;;;;5.20;1.85;;;;;;;10.74;70.33;101202.80;1756351;81;21101;-47
2022/10/10 00:27:50;;;;;;;7.70;2.55;;;;;;;10.67;70.43;101198.91;1707232;82;21059;-47
2022/10/10 00:30:17;;;;;;;6.47;1.85;;;;;;;10.62;70.52;101199.69;1755244;80;21044;-47
2022/10/10 00:32:45;;;;;;;4.58;1.77;;;;;;;10.58;70.59;101204.31;1755148;80;21060;-47
2022/10/10 00:35:11;;;;;;;5.22;1.92;;;;;;;10.60;70.55;101207.68;1753667;81;21617;-46
2022/10/10 00:37:40;;;;;;;7.75;1.62;;;;;;;10.62;70.56;101202.31;1747354;81;21066;-46
2022/10/10 00:40:09;;;;;;;7.45;1.72;;;;;;;10.58;70.57;101202.52;1750974;81;21319;-47
2022/10/10 00:42:36;;;;;;;4.30;1.55;;;;;;;10.53;70.66;101199.35;1727447;80;21481;-47
2022/10/10 00:45:34;;;;;;;4.80;1.75;;;;;;;10.52;70.70;101201.63;1751367;81;21092;-47
2022/10/10 00:48:12;;;;;;;5.25;1.50;;;;;;;10.54;70.61;101205.00;1723892;81;21127;-47
2022/10/10 00:50:46;;;;;;;7.10;1.85;;;;;;;10.54;70.55;101210.71;1751297;81;21111;-47
2022/10/10 00:53:16;;;;;;;5.37;1.80;;;;;;;10.47;70.66;101210.27;1753999;80;21083;-48
2022/10/10 00:55:42;;;;;;;7.45;1.75;;;;;;;10.41;70.79;101206.76;1759196;80;21090;-47
2022/10/10 00:58:09;;;;;;;5.42;1.82;;;;;;;10.39;70.78;101212.60;1756792;80;21122;-47
2022/10/10 01:00:36;;;;;;;5.90;1.82;;;;;;;10.41;70.73;101214.17;1753753;81;21234;-47
2022/10/10 01:03:03;;;;;;;4.60;1.80;;;;;;;10.41;70.73;101208.91;1754969;80;21493;-47
2022/10/10 01:05:30;;;;;;;6.60;2.05;;;;;;;10.35;70.70;101211.09;1755991;81;21035;-47
2022/10/10 01:07:57;;;;;;;5.08;1.75;;;;;;;10.27;71.04;101219.93;1753970;80;21159;-47
2022/10/10 01:10:23;;;;;;;6.22;1.82;;;;;;;10.25;71.13;101219.19;1677592;83;21047;-47
2022/10/10 01:13:08;;;;;;;5.87;1.72;;;;;;;10.28;71.00;101220.31;1754591;80;21238;-47
2022/10/10 01:15:47;;;;;;;4.58;1.60;;;;;;;10.29;71.02;101228.55;1756023;81;21062;-47
2022/10/10 01:18:43;;;;;;;6.75;1.95;;;;;;;10.26;71.08;101220.41;1754552;81;22034;-46
2022/10/10 01:21:32;;;;;;;8.23;1.97;;;;;;;10.23;71.08;101223.23;1749930;81;21095;-47
2022/10/10 01:24:27;;;;;;;4.70;1.62;;;;;;;10.20;71.08;101226.92;1754959;80;21534;-47
2022/10/10 01:27:02;;;;;;;4.42;1.72;;;;;;;10.23;71.01;101224.55;1675415;84;21146;-48
2022/10/10 01:29:39;;;;;;;3.60;1.02;;;;;;;10.22;70.98;101222.41;1752044;81;21587;-47
2022/10/10 01:32:17;;;;;;;6.65;2.12;;;;;;;10.19;71.01;101227.86;1753187;81;21104;-48
2022/10/10 01:34:52;;;;;;;5.20;1.57;;;;;;;10.14;71.05;101226.00;1751175;81;21070;-50
2022/10/10 01:37:42;;;;;;;4.95;1.70;;;;;;;10.11;71.03;101226.19;1731960;80;21124;-48
2022/10/10 01:40:40;;;;;;;5.00;2.25;;;;;;;10.14;70.97;101226.00;1755809;81;21134;-47
2022/10/10 01:43:07;;;;;;;3.77;0.98;;;;;;;10.09;71.02;101226.77;1753155;81;21051;-47
2022/10/10 01:45:34;;;;;;;5.65;1.60;;;;;;;10.02;71.22;101233.37;1752660;80;21082;-47
2022/10/10 01:48:03;;;;;;;11.30;1.90;;;;;;;9.97;71.27;101234.98;1753617;81;21071;-47
2022/10/10 01:50:33;;;;;;;5.58;1.65;;;;;;;9.96;71.18;101237.70;1757714;80;21127;-47
2022/10/10 01:53:23;;;;;;;5.37;1.90;;;;;;;9.96;71.22;101242.95;1730393;81;21212;-47
2022/10/10 01:55:57;;;;;;;6.65;2.20;;;;;;;9.93;71.41;101242.67;1751431;81;21057;-47
2022/10/10 01:59:00;;;;;;;4.30;1.55;;;;;;;9.91;71.53;101248.98;1751568;81;21004;-48
2022/10/10 02:01:52;;;;;;;7.33;2.00;;;;;;;9.88;71.55;101243.91;1753453;80;21089;-48
2022/10/10 02:04:33;;;;;;;4.55;1.60;;;;;;;9.86;71.45;101251.89;1748068;81;22211;-48
2022/10/10 02:07:10;;;;;;;5.53;1.90;;;;;;;9.89;71.30;101245.61;1747269;80;21128;-50
2022/10/10 02:09:38;;;;;;;6.70;1.82;;;;;;;9.85;71.34;101251.50;1749876;80;21111;-48
2022/10/10 02:12:06;;;;;;;5.67;1.62;;;;;;;9.80;71.41;101254.89;1748981;80;21049;-50
2022/10/10 02:14:39;;;;;;;5.95;1.87;;;;;;;9.73;71.51;101261.48;1757048;81;21107;-48
2022/10/10 02:17:07;;;;;;;9.30;1.80;;;;;;;9.71;71.46;101266.00;1745702;80;21121;-48
2022/10/10 02:19:36;;;;;;;5.28;1.92;;;;;;;9.71;71.52;101270.78;1729227;81;21855;-48
2022/10/10 02:22:03;;;;;;;4.83;1.72;;;;;;;9.68;71.62;101273.59;1747950;81;21015;-48
2022/10/10 02:24:30;;;;;;;7.15;1.90;;;;;;;9.63;71.73;101273.90;1701433;80;21138;-48
2022/10/10 02:27:09;;;;;;;7.53;2.12;;;;;;;9.60;71.88;101271.91;1753369;81;21583;-54
2022/10/10 02:29:36;;;;;;;4.70;1.67;;;;;;;9.58;71.88;101265.91;1748973;80;21348;-47
2022/10/10 02:32:07;;;;;;;6.42;2.27;;;;;;;9.63;71.66;101273.03;1725416;81;21109;-48
2022/10/10 02:34:39;;;;;;;5.53;2.72;;;;;;;9.61;71.74;101276.23;1752753;81;21005;-48
2022/10/10 02:37:09;;;;;;;7.58;2.50;;;;;;;9.54;71.79;101268.36;1745909;80;21060;-49
2022/10/10 02:39:40;;;;;;;7.05;3.15;;;;;;;9.47;71.98;101274.46;1750676;81;21039;-48
2022/10/10 02:42:08;;;;;;;6.90;3.17;;;;;;;9.43;72.14;101271.19;1751990;81;21114;-49
2022/10/10 02:44:36;;;;;;;7.85;2.90;;;;;;;9.43;72.02;101282.14;1750213;81;21120;-49
2022/10/10 02:47:03;;;;;;;8.45;2.62;;;;;;;9.44;72.04;101282.05;1746493;80;21535;-49
2022/10/10 02:49:32;;;;;;;5.37;2.33;;;;;;;9.43;72.17;101283.00;1751102;80;21072;-48
2022/10/10 02:52:00;;;;;;;5.62;1.90;;;;;;;9.42;72.22;101282.61;1753412;81;21547;-49
2022/10/10 02:54:27;;;;;;;5.67;2.20;;;;;;;9.38;72.17;101288.14;1751097;81;21012;-49
2022/10/10 02:56:53;;;;;;;4.97;2.00;;;;;;;9.34;72.12;101282.23;1753868;81;21116;-49
2022/10/10 02:59:20;;;;;;;7.70;2.20;;;;;;;9.33;71.91;101286.27;1747556;81;21118;-49
2022/10/10 03:01:46;;;;;;;4.95;1.90;;;;;;;9.31;72.15;101290.30;1752057;80;21475;-49
2022/10/10 03:04:13;;;;;;;3.90;1.90;;;;;;;9.29;72.25;101287.75;1746201;81;21063;-48
2022/10/10 03:06:41;;;;;;;4.55;1.75;;;;;;;9.27;72.29;101292.73;1746308;80;21435;-49
2022/10/10 03:09:07;;;;;;;7.17;1.70;;;;;;;9.24;72.34;101294.23;1752154;80;21080;-49
2022/10/10 03:11:34;;;;;;;4.03;1.70;;;;;;;9.27;72.13;101296.68;1745740;81;21063;-48
2022/10/10 03:14:01;;;;;;;3.87;1.60;;;;;;;9.29;72.00;101301.37;1759596;81;21074;-49
2022/10/10 03:16:28;;;;;;;5.12;1.62;;;;;;;9.25;72.06;101306.44;1760766;81;21075;-49
2022/10/10 03:18:56;;;;;;;3.85;1.60;;;;;;;9.15;72.10;101297.42;1760627;80;21044;-49
2022/10/10 03:21:23;;;;;;;4.15;1.85;;;;;;;9.11;72.37;101300.67;1759783;80;21639;-49
2022/10/10 03:23:49;;;;;;;5.72;1.55;;;;;;;9.09;72.37;101306.48;1760062;81;21054;-49
2022/10/10 03:26:16;;;;;;;4.67;1.70;;;;;;;9.13;72.30;101301.89;1762968;81;21165;-49
2022/10/10 03:28:44;;;;;;;5.10;1.85;;;;;;;9.16;72.20;101303.03;1762157;81;21007;-49
2022/10/10 03:31:10;;;;;;;6.45;1.85;;;;;;;9.14;72.23;101303.12;1759921;81;21129;-49
2022/10/10 03:33:37;;;;;;;5.15;1.60;;;;;;;9.08;72.07;101302.19;1759050;81;21284;-49
2022/10/10 03:36:04;;;;;;;4.83;1.80;;;;;;;9.04;72.20;101309.85;1759758;81;21035;-49
2022/10/10 03:38:31;;;;;;;5.03;1.90;;;;;;;9.04;72.10;101309.85;1754612;79;21253;-48
2022/10/10 03:40:57;;;;;;;4.40;1.75;;;;;;;9.06;71.95;101312.78;1750792;81;21087;-49
2022/10/10 03:43:25;;;;;;;5.95;1.67;;;;;;;9.06;71.97;101317.16;1753111;81;21011;-49
2022/10/10 03:45:51;;;;;;;4.97;1.75;;;;;;;9.01;71.95;101315.28;1753094;81;21127;-48
2022/10/10 03:48:18;;;;;;;5.87;1.90;;;;;;;8.92;72.04;101315.36;1755926;81;21054;-49
2022/10/10 03:50:45;;;;;;;4.75;1.47;;;;;;;8.85;72.34;101310.92;1751703;81;21060;-49
2022/10/10 03:53:12;;;;;;;7.85;1.90;;;;;;;8.85;72.37;101312.23;1751815;79;21048;-49
2022/10/10 03:55:40;;;;;;;5.53;1.82;;;;;;;8.89;72.30;101317.70;1758486;81;21053;-53
2022/10/10 03:58:09;;;;;;;8.20;2.20;;;;;;;8.90;72.34;101318.54;1757273;80;21209;-49
2022/10/10 04:00:35;;;;;;;6.67;1.98;;;;;;;8.89;72.46;101322.95;1758308;81;21561;-47
2022/10/10 04:03:05;;;;;;;6.58;1.95;;;;;;;8.85;72.50;101320.59;1759836;79;21543;-46
2022/10/10 04:05:37;;;;;;;7.12;1.98;;;;;;;8.84;72.48;101323.69;1756256;81;21045;-46
2022/10/10 04:08:04;;;;;;;5.55;1.42;;;;;;;8.88;72.40;101321.73;1752414;81;21464;-47
2022/10/10 04:10:31;;;;;;;8.15;1.80;;;;;;;8.88;72.33;101332.23;1748050;81;22393;-47
2022/10/10 04:12:58;;;;;;;5.47;1.72;;;;;;;8.85;72.39;101333.23;1753917;80;21043;-46
2022/10/10 04:15:25;;;;;;;6.30;1.87;;;;;;;8.82;72.44;101339.13;1752203;81;21059;-46
2022/10/10 04:17:52;;;;;;;5.67;2.02;;;;;;;8.80;72.41;101337.07;1753300;81;21082;-47
2022/10/10 04:20:19;;;;;;;5.15;1.87;;;;;;;8.84;72.29;101339.88;1748525;81;21032;-46
2022/10/10 04:22:47;;;;;;;5.95;1.75;;;;;;;8.84;72.30;101338.57;1754753;80;21516;-47
2022/10/10 04:25:13;;;;;;;9.05;2.17;;;;;;;8.82;72.37;101345.22;1751001;81;21719;-46
2022/10/10 04:27:42;;;;;;;6.62;1.82;;;;;;;8.77;72.44;101343.32;1748133;80;21063;-46
2022/10/10 04:30:10;;;;;;;5.08;1.80;;;;;;;8.77;72.39;101343.80;1742635;81;21680;-47
2022/10/10 04:44:54;;;;;;;7.15;1.92;;;;;;;9.58;70.28;101347.36;1869728;75;22648;-48
2022/10/10 04:47:20;;;;;;;5.62;1.70;;;;;;;9.61;69.86;101348.49;1784730;78;20979;-48
2022/10/10 04:49:48;;;;;;;4.15;1.67;;;;;;;9.54;69.83;101353.75;1795610;78;21211;-48
2022/10/10 04:52:15;;;;;;;4.37;1.67;;;;;;;9.42;69.98;101350.91;1779177;78;21479;-48
2022/10/10 04:54:42;;;;;;;8.73;2.08;;;;;;;9.32;70.17;101356.34;1760494;80;21021;-48
2022/10/10 04:57:09;;;;;;;8.78;1.95;;;;;;;9.26;70.40;101365.89;1762773;79;21097;-48
2022/10/10 04:59:35;;;;;;;7.62;1.98;;;;;;;9.25;70.41;101365.53;1771207;79;21050;-48
2022/10/10 05:02:01;;;;;;;5.12;2.00;;;;;;;9.21;70.56;101366.18;1803662;78;21201;-48
2022/10/10 05:04:28;;;;;;;5.10;1.80;;;;;;;9.13;70.74;101363.59;1787806;80;20978;-48
2022/10/10 05:06:55;;;;;;;5.80;2.15;;;;;;;9.06;70.92;101365.73;1768674;80;21032;-48
2022/10/10 05:09:22;;;;;;;4.85;2.10;;;;;;;9.02;71.09;101370.80;1764568;78;21113;-48
2022/10/10 05:11:48;;;;;;;4.50;2.20;;;;;;;9.04;71.11;101366.30;1778742;80;21140;-48
2022/10/10 05:14:15;;;;;;;8.83;2.27;;;;;;;9.01;71.22;101363.40;1794627;78;21221;-48
2022/10/10 05:16:43;;;;;;;5.03;2.10;;;;;;;8.94;71.42;101369.91;1796504;78;21499;-48
2022/10/10 05:19:10;;;;;;;5.97;2.30;;;;;;;8.87;71.70;101371.20;1766225;80;21529;-48
2022/10/10 05:21:36;;;;;;;8.48;2.67;;;;;;;8.90;71.74;101371.88;1792085;78;21126;-48
2022/10/10 05:24:04;;;;;;;5.35;2.27;;;;;;;8.96;71.78;101375.95;1763486;80;21019;-48
2022/10/10 05:26:31;;;;;;;5.90;2.08;;;;;;;8.99;71.75;101381.47;1761309;80;21131;-48
2022/10/10 05:28:58;;;;;;;5.60;2.20;;;;;;;9.01;71.82;101383.09;1788433;80;21121;-48
2022/10/10 05:31:25;;;;;;;6.40;2.17;;;;;;;9.00;71.93;101389.27;1767465;78;21012;-48
2022/10/10 05:33:52;;;;;;;6.05;2.08;;;;;;;9.05;71.82;101381.97;1797979;78;21051;-48
2022/10/10 05:36:18;;;;;;;6.90;2.70;;;;;;;9.11;71.81;101382.93;1801225;78;21073;-48
2022/10/10 05:38:45;;;;;;;5.78;2.37;;;;;;;9.13;71.82;101380.22;1797570;78;21226;-49
2022/10/10 05:41:11;;;;;;;4.25;1.65;;;;;;;9.15;71.82;101390.64;1783940;78;21496;-48
2022/10/10 05:43:38;;;;;;;5.08;1.90;;;;;;;9.20;71.81;101384.65;1763053;80;21122;-48
2022/10/10 05:46:05;;;;;;;6.03;2.17;;;;;;;9.28;71.64;101392.93;1770252;80;21137;-48
2022/10/10 05:48:32;;;;;;;7.53;2.17;;;;;;;9.30;71.70;101387.95;1769315;80;21410;-48
2022/10/10 05:50:59;;;;;;;4.83;2.17;;;;;;;9.35;71.77;101392.94;1769065;80;21235;-49
2022/10/10 05:53:26;;;;;;;9.18;1.85;;;;;;;9.40;71.71;101397.45;1765700;80;21017;-48
2022/10/10 05:55:53;;;;;;;6.87;2.42;;;;;;;9.51;71.53;101395.97;1770228;80;21007;-48
2022/10/10 05:58:20;;;;;;;6.03;2.10;;;;;;;9.60;71.59;101401.97;1771268;80;21042;-48
2022/10/10 06:00:47;;;;;;;6.75;2.67;;;;;;;9.68;71.58;101401.05;1767208;80;21473;-48
2022/10/10 06:03:15;;;;;;;6.58;2.15;;;;;;;9.75;71.67;101402.84;1791569;79;21191;-48
2022/10/10 06:05:44;;;;;;;5.40;2.25;;;;;;;9.85;71.42;101402.21;1768965;80;21057;-48
2022/10/10 06:08:11;;;;;;;10.38;2.27;;;;;;;9.95;71.11;101403.81;1774399;80;21138;-48
2022/10/10 06:10:41;;;;;;;10.00;2.20;;;;;;;10.01;70.61;101402.11;1776137;80;21060;-48
2022/10/10 06:13:08;;;;;;;7.35;2.45;;;;;;;10.03;70.52;101404.64;1768039;80;21099;-48
2022/10/10 06:15:36;;;;;;;10.08;2.33;;;;;;;10.08;70.33;101405.68;1770951;80;20990;-48
2022/10/10 06:18:04;;;;;;;8.15;2.15;;;;;;;10.17;70.25;101407.73;1779163;80;21050;-50
2022/10/10 06:20:39;;;;;;;10.20;3.17;;;;;;;10.19;69.71;101409.81;1771574;80;21033;-48
2022/10/10 06:23:07;;;;;;;7.00;2.65;;;;;;;10.20;69.56;101410.17;1767850;80;21591;-48
2022/10/10 06:25:34;;;;;;;10.08;2.90;;;;;;;10.20;69.34;101407.09;1775276;80;21006;-48
2022/10/10 06:28:02;;;;;;;7.50;2.92;;;;;;;10.29;69.45;101423.22;1775459;80;21816;-48
2022/10/10 06:30:28;;;;;;;8.53;3.22;;;;;;;10.32;69.27;101408.59;1781719;80;21019;-48
2022/10/10 06:32:56;;;;;;;7.53;3.72;;;;;;;10.33;68.96;101407.66;1776618;80;21038;-48
2022/10/10 06:35:22;;;;;;;5.95;2.85;;;;;;;10.36;69.04;101410.11;1768227;80;21090;-48
2022/10/10 06:37:49;;;;;;;10.45;3.65;;;;;;;10.47;68.59;101414.69;1762962;80;21065;-48
2022/10/10 06:40:15;;;;;;;10.03;3.92;;;;;;;10.51;68.41;101414.41;1772371;80;21663;-48
2022/10/10 06:42:42;;;;;;;8.20;4.30;;;;;;;10.52;68.44;101410.84;1781828;80;21015;-48
2022/10/10 06:45:09;;;;;;;8.03;4.58;;;;;;;10.53;68.34;101414.30;1771456;79;21532;-48
2022/10/10 06:47:36;;;;;;;9.25;4.42;;;;;;;10.55;68.19;101417.20;1770994;79;21006;-49
2022/10/10 06:50:04;;;;;;;9.03;4.87;;;;;;;10.59;68.08;101416.08;1778214;79;21102;-48
2022/10/10 06:52:31;;;;;;;10.10;4.75;;;;;;;10.62;67.79;101419.45;1774398;78;21128;-47
2022/10/10 06:54:58;;;;;;;10.30;4.80;;;;;;;10.59;67.98;101412.13;1799715;79;21101;-48
2022/10/10 06:57:24;;;;;;;10.53;5.60;;;;;;;10.60;68.10;101415.11;1788730;79;21069;-48
2022/10/10 06:59:50;;;;;;;11.63;7.67;;;;;;;10.69;67.94;101428.19;1781367;79;21624;-48
2022/10/10 07:02:18;;;;;;;13.85;9.68;;;;;;;10.68;67.42;101412.48;1780027;79;21555;-48
2022/10/10 07:04:45;;;;;;;13.98;8.40;;;;;;;10.64;67.32;101417.11;1784347;79;21198;-48
2022/10/10 07:11:18;;;;;;;22.07;14.15;;;;;;;10.69;67.43;101421.61;1786906;79;21104;-48
2022/10/10 07:14:02;;;;;;;19.25;14.73;;;;;;;10.73;67.48;101433.62;1799013;79;21457;-48
2022/10/10 07:16:32;;;;;;;23.77;16.20;;;;;;;10.72;67.54;101427.13;1785008;79;21050;-48
2022/10/10 07:18:59;;;;;;;24.10;17.00;;;;;;;10.78;67.31;101432.84;1779953;79;21311;-48
2022/10/10 07:21:26;;;;;;;26.85;18.98;;;;;;;10.83;67.13;101428.61;1776335;79;22458;-48
2022/10/10 07:23:53;;;;;;;30.48;25.05;;;;;;;10.88;67.12;101431.79;1791344;79;21077;-48
2022/10/10 07:26:21;;;;;;;33.48;29.67;;;;;;;10.92;66.98;101436.38;1779750;79;21057;-48
2022/10/10 07:28:48;;;;;;;39.95;33.48;;;;;;;11.00;67.10;101431.95;1778237;79;21033;-48
2022/10/10 07:31:15;;;;;;;46.55;36.85;;;;;;;11.12;67.01;101430.66;1776259;79;21243;-48
2022/10/10 07:33:44;;;;;;;47.05;42.03;;;;;;;11.17;66.90;101432.99;1782699;79;21568;-48
2022/10/10 07:36:10;;;;;;;50.85;41.80;;;;;;;11.20;66.96;101435.43;1785806;79;21063;-48
2022/10/10 07:38:37;;;;;;;42.62;38.13;;;;;;;11.21;66.37;101435.78;1810910;78;21045;-48
2022/10/10 07:41:08;;;;;;;48.52;37.03;;;;;;;11.25;66.46;101433.33;1808193;78;21082;-48
2022/10/10 07:43:36;;;;;;;43.28;38.60;;;;;;;11.32;66.36;101429.34;1786694;79;21138;-48
2022/10/10 07:46:04;;;;;;;49.90;39.92;;;;;;;11.35;66.12;101430.94;1787328;79;21029;-48
2022/10/10 07:48:32;;;;;;;43.50;35.88;;;;;;;11.33;66.35;101432.36;1815629;78;20990;-48
2022/10/10 07:50:58;;;;;;;40.67;36.30;;;;;;;11.32;66.37;101425.87;1825188;78;21088;-48
2022/10/10 07:53:25;;;;;;;41.33;36.95;;;;;;;11.37;66.48;101436.11;1787626;78;21046;-48
2022/10/10 07:55:53;;;;;;;31.25;27.95;;;;;;;11.37;65.47;101431.67;1810198;78;20967;-48
2022/10/10 07:58:20;;;;;;;28.17;22.13;;;;;;;11.32;65.04;101431.14;1774494;79;21651;-48
2022/10/10 08:00:46;;;;;;;23.02;19.40;;;;;;;11.29;65.59;101431.34;1791524;79;21529;-48
2022/10/10 08:03:13;;;;;;;28.12;23.27;;;;;;;11.23;66.01;101429.09;1784906;79;21073;-48
2022/10/10 08:05:45;;;;;;;28.83;22.40;;;;;;;11.27;66.21;101425.33;1787323;79;21046;-48
2022/10/10 08:08:11;;;;;;;29.72;24.87;;;;;;;11.33;65.45;101417.86;1808950;78;21616;-48
2022/10/10 08:10:43;;;;;;;32.75;29.25;;;;;;;11.40;65.48;101425.34;1793781;78;21049;-48
2022/10/10 08:13:10;;;;;;;30.15;26.90;;;;;;;11.46;65.53;101424.45;1772529;78;21079;-48
2022/10/10 08:15:39;;;;;;;30.62;26.97;;;;;;;11.52;65.60;101424.05;1798141;78;21008;-49
2022/10/10 08:18:05;;;;;;;29.20;26.10;;;;;;;11.64;64.54;101423.70;1777828;79;21049;-48
2022/10/10 08:20:32;;;;;;;26.90;24.05;;;;;;;11.78;64.36;101423.23;1777671;79;21052;-48
2022/10/10 08:22:59;;;;;;;25.05;19.65;;;;;;;11.85;64.04;101421.84;1792352;79;21025;-48
2022/10/10 08:25:25;;;;;;;17.15;14.38;;;;;;;11.87;63.49;101419.48;1787068;79;21101;-49
2022/10/10 08:27:53;;;;;;;16.50;14.38;;;;;;;11.92;62.85;101420.53;1790742;80;21069;-49
2022/10/10 08:30:20;;;;;;;16.23;14.03;;;;;;;11.93;63.05;101421.36;1791325;78;22983;-48
2022/10/10 08:32:46;;;;;;;15.78;11.48;;;;;;;11.99;62.20;101412.55;1781674;79;22047;-48
2022/10/10 08:35:13;;;;;;;12.75;10.43;;;;;;;12.07;61.89;101423.41;1771548;80;21001;-48
2022/10/10 08:37:40;;;;;;;14.20;12.55;;;;;;;12.08;61.89;101418.48;1781435;80;21120;-48
2022/10/10 08:40:10;;;;;;;15.83;12.43;;;;;;;12.11;61.88;101415.30;1808890;78;21089;-48
2022/10/10 08:42:41;;;;;;;12.65;9.50;;;;;;;12.15;62.12;101426.81;1763488;80;21124;-48
2022/10/10 08:45:23;;;;;;;10.10;7.28;;;;;;;12.22;61.59;101412.27;1759994;80;21090;-49
2022/10/10 08:47:58;;;;;;;12.10;7.92;;;;;;;12.31;60.68;101420.48;1797893;78;20975;-48
2022/10/10 08:50:32;;;;;;;9.08;6.15;;;;;;;12.30;60.03;101422.27;1798235;78;21499;-48
2022/10/10 08:53:25;;;;;;;12.55;6.17;;;;;;;12.35;60.95;101420.63;1802672;78;21077;-48
2022/10/10 08:55:52;;;;;;;10.53;6.70;;;;;;;12.30;60.20;101423.58;1793900;79;21013;-47
2022/10/10 08:58:28;;;;;;;8.60;5.58;;;;;;;12.34;59.77;101409.23;1802220;78;21736;-47
2022/10/10 09:01:23;;;;;;;9.53;5.80;;;;;;;12.37;60.46;101422.22;1748127;80;21957;-47
2022/10/10 09:04:02;;;;;;;10.55;5.05;;;;;;;12.48;59.86;101416.64;1766539;80;21038;-47
2022/10/10 09:07:06;;;;;;;9.43;6.12;;;;;;;12.57;58.66;101413.33;1788303;78;21642;-47
2022/10/10 09:10:08;;;;;;;12.65;6.28;;;;;;;12.64;58.28;101418.52;1813319;78;21007;-47
2022/10/10 09:13:20;;;;;;;7.80;4.30;;;;;;;12.67;59.02;101414.34;1759662;78;21119;-47
2022/10/10 09:18:46;;;;;;;9.48;4.20;;;;;;;12.64;58.46;101410.14;1775567;78;22641;-64
2022/10/10 09:21:21;;;;;;;8.80;3.87;;;;;;;12.71;58.66;101413.64;1732938;80;21564;-63
2022/10/10 09:24:21;;;;;;;8.10;3.92;;;;;;;12.78;59.21;101419.70;1712576;82;21848;-64
2022/10/10 09:26:55;;;;;;;5.55;3.40;;;;;;;12.89;58.02;101417.58;1740237;80;20955;-65
2022/10/10 09:29:45;;;;;;;8.35;3.47;;;;;;;13.04;57.17;101410.81;1739861;81;21564;-65
2022/10/10 09:32:32;;;;;;;7.42;4.28;;;;;;;13.05;57.26;101412.02;1736255;81;21002;-66
2022/10/10 09:35:17;;;;;;;6.25;3.65;;;;;;;13.06;56.38;101412.86;1732004;80;21118;-66
2022/10/10 09:37:44;;;;;;;11.68;4.70;;;;;;;13.08;55.55;101414.91;1741883;82;21122;-66
2022/10/10 09:40:30;;;;;;;7.92;3.95;;;;;;;13.12;56.38;101416.37;1729938;80;20968;-66
2022/10/10 09:42:57;;;;;;;7.30;4.33;;;;;;;13.16;56.07;101413.86;1734237;82;21101;-67
2022/10/10 09:45:34;;;;;;;7.80;4.70;;;;;;;13.23;56.22;101402.34;1739824;82;21075;-67
2022/10/10 09:48:00;;;;;;;10.55;6.05;;;;;;;13.30;54.92;101404.42;1714277;82;21102;-67
2022/10/10 09:50:27;;;;;;;8.53;6.00;;;;;;;13.36;55.09;101415.04;1724210;82;21804;-64
2022/10/10 09:52:53;;;;;;;9.50;6.08;;;;;;;13.37;54.58;101403.52;1735968;82;21126;-67
2022/10/10 09:55:36;;;;;;;9.90;5.50;;;;;;;13.36;54.69;101406.66;1664892;82;20988;-67
2022/10/10 09:58:33;;;;;;;8.28;4.97;;;;;;;13.38;53.87;101397.25;1733346;82;21043;-67
2022/10/10 10:01:17;;;;;;;6.65;3.52;;;;;;;13.40;52.75;101394.50;1742636;82;26614;-66
2022/10/10 10:04:05;;;;;;;8.75;3.72;;;;;;;13.41;51.61;101385.62;1740025;82;21142;-66
2022/10/10 10:06:32;;;;;;;6.00;3.25;;;;;;;13.49;52.47;101389.84;1735287;82;21019;-67
2022/10/10 10:13:25;;;;;;;5.33;2.60;;;;;;;13.52;51.33;101386.48;1736357;80;21083;-65
2022/10/10 10:16:12;;;;;;;7.37;3.25;;;;;;;13.54;50.19;101374.47;1736444;81;21126;-65
2022/10/10 10:18:45;;;;;;;5.65;2.58;;;;;;;13.60;50.34;101377.97;1729811;80;21082;-66
2022/10/10 10:21:19;;;;;;;6.33;2.80;;;;;;;13.65;50.25;101386.39;1713887;82;21013;-66
2022/10/10 10:24:00;;;;;;;6.70;1.90;;;;;;;13.63;50.32;101380.36;1732879;81;21035;-66
2022/10/10 10:26:44;;;;;;;7.42;2.55;;;;;;;13.66;50.85;101377.97;1717125;82;21052;-66
2022/10/10 10:29:30;;;;;;;4.90;1.77;;;;;;;13.67;49.72;101379.17;1733440;82;21129;-65
2022/10/10 10:32:33;;;;;;;5.15;1.90;;;;;;;13.71;50.25;101383.25;1740562;82;21119;-66
2022/10/10 10:35:27;;;;;;;5.83;1.90;;;;;;;13.72;49.79;101381.47;1732748;81;21452;-66
2022/10/10 10:38:47;;;;;;;10.20;1.42;;;;;;;13.76;49.83;101384.23;1734602;82;21517;-66
2022/10/10 10:41:48;;;;;;;4.92;1.12;;;;;;;13.79;48.98;101373.41;1734689;81;21059;-66
2022/10/10 10:44:42;;;;;;;4.42;0.90;;;;;;;13.83;49.29;101358.97;1726681;82;21081;-65
2022/10/10 10:47:23;;;;;;;2.70;0.80;;;;;;;13.86;48.30;101371.13;1733382;82;22903;-65
2022/10/10 10:50:30;;;;;;;3.70;1.10;;;;;;;13.89;48.70;101386.28;1723348;82;21051;-66
2022/10/10 10:53:22;;;;;;;;;;;;;;;13.90;47.01;101385.33;1721492;82;21067;-66
2022/10/10 10:56:26;;;;;;;4.25;0.68;;;;;;;13.94;47.54;101381.47;1728290;81;20165;-67
2022/10/10 10:59:53;;;;;;;3.77;1.30;;;;;;;14.01;48.00;101363.30;1731633;82;21075;-66
2022/10/10 11:02:25;;;;;;;3.52;0.85;;;;;;;14.09;46.67;101394.47;1726700;81;21231;-65
2022/10/10 11:15:44;;;;;;;3.62;0.70;;;;;;;14.22;46.13;101377.98;1736780;81;21047;-58
2022/10/10 11:18:37;;;;;;;2.85;0.85;;;;;;;14.29;46.38;101388.43;1739648;81;21241;-59
2022/10/10 11:21:19;;;;;;;2.33;0.50;;;;;;;14.34;45.18;101371.32;1745914;81;21575;-58
2022/10/10 11:23:59;;;;;;;4.37;0.95;;;;;;;14.41;44.82;101373.36;1738110;81;21050;-59
2022/10/10 11:26:38;;;;;;;4.67;1.00;;;;;;;14.44;45.62;101377.56;1723854;81;21137;-60
2022/10/10 11:29:21;;;;;;;3.83;0.80;;;;;;;14.46;45.99;101378.30;1748902;81;21041;-61
2022/10/10 11:32:08;;;;;;;2.65;0.80;;;;;;;14.49;46.26;101382.86;1742363;81;21243;-60
2022/10/10 11:34:43;;;;;;;5.97;1.35;;;;;;;14.54;45.67;101373.69;1729031;81;21006;-59
2022/10/10 11:37:15;;;;;;;3.15;0.98;;;;;;;14.56;44.47;101365.13;1731593;81;21057;-60
2022/10/10 11:39:49;;;;;;;3.42;1.02;;;;;;;14.63;44.66;101371.66;1727607;81;21049;-59
2022/10/10 11:42:22;;;;;;;5.33;1.20;;;;;;;14.68;44.96;101382.23;1731130;81;21106;-60
2022/10/10 11:45:01;;;;;;;4.42;0.93;;;;;;;14.73;44.76;101383.68;1734650;81;21091;-62
2022/10/10 11:47:39;;;;;;;3.98;0.80;;;;;;;14.71;44.21;101369.69;1740309;81;21093;-59
2022/10/10 11:50:19;;;;;;;5.83;1.12;;;;;;;14.75;44.20;101378.59;1726038;81;21001;-60
2022/10/10 11:53:06;;;;;;;3.92;0.80;;;;;;;14.77;44.66;101374.00;1743428;81;21065;-59
2022/10/10 11:55:41;;;;;;;3.52;0.80;;;;;;;14.82;45.65;101381.09;1746791;81;21043;-59
2022/10/10 11:58:16;;;;;;;3.33;0.80;;;;;;;14.87;43.99;101371.45;1739476;81;21943;-59
2022/10/10 12:00:47;;;;;;;4.58;1.05;;;;;;;14.89;44.18;101385.41;1726159;81;21109;-60
2022/10/10 12:03:14;;;;;;;5.12;1.00;;;;;;;14.91;44.16;101371.56;1738717;81;21064;-60
2022/10/10 12:05:48;;;;;;;2.30;0.70;;;;;;;14.94;44.01;101384.53;1713421;83;21143;-61
2022/10/10 12:08:20;;;;;;;2.87;0.60;;;;;;;14.96;44.64;101384.41;1714873;82;21060;-62
2022/10/10 12:10:54;;;;;;;4.33;1.17;;;;;;;15.00;43.61;101382.72;1708912;82;21250;-59
2022/10/10 12:13:39;;;;;;;4.28;0.70;;;;;;;15.06;43.68;101384.00;1706554;82;21017;-61
2022/10/10 12:16:10;;;;;;;5.17;1.10;;;;;;;15.08;43.35;101381.23;1728803;81;21050;-59
2022/10/10 12:18:48;;;;;;;2.92;0.80;;;;;;;15.08;42.42;101385.20;1725514;81;21042;-58
2022/10/10 12:21:17;;;;;;;2.70;0.62;;;;;;;15.11;43.79;101389.77;1731522;81;21118;-59
2022/10/10 12:23:47;;;;;;;4.15;1.02;;;;;;;15.19;42.62;101377.20;1724560;81;22021;-61
2022/10/10 12:26:18;;;;;;;2.72;0.90;;;;;;;15.22;41.12;101379.11;1738438;81;21131;-59